D/T METAR WX W/SPE G/SPE TEMP DEWP FEEL
31/01/23 04:20 EGVN 310420Z 23006KT 9999 BKN010 06/04 Q1024 NOSIG RMK GRN GRN 6.9mph 6°C 4°C 5.0°C
30/01/23 21:50 EGVN 302150Z 26004KT CAVOK 04/01 Q1027 NOSIG RMK BLU BLU 4.6mph 4°C 1°C 2.1°C
30/01/23 12:50 EGVN 301250Z 30007KT 9999 FEW030 BKN180 09/03 Q1026 NOSIG RMK BLU BLU 8.1mph 9°C 3°C 7.7°C
30/01/23 11:50 EGVN 301150Z 29009KT 9999 FEW030 BKN180 08/02 Q1026 NOSIG RMK BLU BLU 10.4mph 8°C 2°C 6.4°C
30/01/23 10:50 EGVN 301050Z 30007KT 9999 FEW040 BKN180 07/02 Q1026 NOSIG RMK BLU BLU 8.1mph 7°C 2°C 5.4°C
30/01/23 10:20 EGVN 301020Z 27006KT 9999 FEW040 BKN180 06/02 Q1026 NOSIG RMK BLU BLU 6.9mph 6°C 2°C 4.4°C
30/01/23 10:20 EGVN 301020Z 27006KT 9999 FEW040 BKN180 06/02 Q1026 NOSIG 6.9mph 6°C 2°C 4.4°C
30/01/23 07:50 EGVN 300750Z 25004KT 9999 FEW040 04/01 Q1024 NOSIG RMK BLU BLU 4.6mph 4°C 1°C 2.1°C
30/01/23 06:50 EGVN 300650Z 26005KT 9999 FEW040 05/01 Q1024 NOSIG RMK BLU BLU 5.8mph 5°C 1°C 3.1°C
09/01/23 06:20 EGVN 090620Z 24005KT CAVOK 05/03 Q0994 NOSIG RMK BLU BLU 5.8mph 5°C 3°C 3.7°C
09/01/23 06:20 EGVN 090620Z 24005KT CAVOK 05/03 Q0994 NOSIG 5.8mph 5°C 3°C 3.7°C
09/01/23 05:20 EGVN 090520Z 25005KT CAVOK 05/04 Q0994 NOSIG RMK BLU BLU 5.8mph 5°C 4°C 4.0°C
09/01/23 04:50 EGVN 090450Z 24005KT 9999 FEW031 BKN170 05/04 Q0993 NOSIG RMK BLU BLU 5.8mph 5°C 4°C 4.0°C
09/01/23 04:20 EGVN 090420Z 25007KT 9999 FEW031 BKN140 06/04 Q0993 NOSIG RMK BLU BLU 8.1mph 6°C 4°C 5.0°C
09/01/23 03:50 EGVN 090350Z 25006KT 9999 FEW040 BKN130 05/04 Q0992 NOSIG RMK BLU BLU 6.9mph 5°C 4°C 4.0°C
09/01/23 03:20 EGVN 090320Z 25006KT 9999 FEW045 06/04 Q0992 NOSIG RMK BLU BLU 6.9mph 6°C 4°C 5.0°C
09/01/23 02:50 EGVN 090250Z 25009KT 9999 FEW032 SCT090 05/04 Q0992 NOSIG RMK BLU BLU 10.4mph 5°C 4°C 4.0°C
09/01/23 02:20 EGVN 090220Z 25009KT CAVOK 05/04 Q0991 NOSIG RMK BLU BLU 10.4mph 5°C 4°C 4.0°C
09/01/23 01:20 EGVN 090120Z 25006KT 9999 FEW028 SCT150 05/04 Q0990 NOSIG RMK BLU BLU 6.9mph 5°C 4°C 4.0°C
09/01/23 00:50 EGVN 090050Z 25007KT 9999 FEW030 BKN110 06/04 Q0990 NOSIG RMK BLU BLU 8.1mph 6°C 4°C 5.0°C
09/01/23 00:20 EGVN 090020Z 24005KT 9999 SCT035 BKN080 06/04 Q0989 NOSIG RMK BLU BLU 5.8mph 6°C 4°C 5.0°C
08/01/23 23:50 EGVN 082350Z 24004KT 9999 FEW028 BKN065 06/04 Q0988 TEMPO SCT020 4.6mph 6°C 4°C 5.0°C
08/01/23 23:20 EGVN 082320Z 25002KT 9999 SCT020 BKN030 06/05 Q0988 TEMPO BKN030 RMK WHT TEMPO BLU 2.3mph 6°C 5°C 5.3°C
08/01/23 22:50 EGVN 082250Z 33003KT 9999 -SHRA FEW017 BKN023 05/04 Q0987 TEMPO BKN030 -SHRA 3.5mph 5°C 4°C 4.0°C
08/01/23 22:20 EGVN 082220Z 23002KT 9999 BKN016 BKN030 06/04 Q0987 TEMPO BKN030 2.3mph 6°C 4°C 5.0°C
08/01/23 21:50 EGVN 082150Z 18005KT 9999 FEW020 BKN030 06/04 Q0987 TEMPO SCT020 5.8mph 6°C 4°C 5.0°C
08/01/23 20:20 EGVN 082020Z 19006KT 9999 FEW045 SCT200 05/03 Q0987 TEMPO 7000 -SHRA SCT020 RMK BLU TEMPO WHT 6.9mph 5°C 3°C 3.7°C
08/01/23 19:50 EGVN 081950Z 17005KT CAVOK 05/03 Q0988 NOSIG 5.8mph 5°C 3°C 3.7°C
08/01/23 18:50 EGVN 081850Z 19005KT 9999 FEW040 04/03 Q0988 NOSIG RMK BLU BLU 5.8mph 4°C 3°C 2.7°C
08/01/23 18:20 EGVN 081820Z 20003KT 9999 FEW030 04/02 Q0988 NOSIG RMK BLU BLU 3.5mph 4°C 2°C 2.4°C
08/01/23 17:20 EGVN 081720Z 23005KT 9999 FEW025 SCT100 05/02 Q0988 NOSIG RMK BLU BLU 5.8mph 5°C 2°C 3.4°C
08/01/23 16:50 EGVN 081650Z 25007KT 9999 -SHRA FEW020 SCT035 BKN180 06/02 Q0988 NOSIG RMK BLU BLU -SHRA 8.1mph 6°C 2°C 4.4°C
08/01/23 16:20 EGVN 081620Z 26014G25KT 9999 -SHRA SCT017 BKN050 05/03 Q0988 RESHRA BECMG NSW FEW017 RMK WHT BECMG BLU -SHRA 16.1mph 28.8mph 5°C 3°C 3.7°C
08/01/23 15:50 EGVN 081550Z 23006KT 9999 -SHRA SCT020 BKN040 07/04 Q0987 TEMPO 7000 SHRA RMK WHT TEMPO WHT -SHRA 6.9mph 7°C 4°C 6.0°C
08/01/23 15:20 EGVN 081520Z 22007KT 9999 FEW020 SCT025 BKN100 08/04 Q0987 TEMPO 6000 SHRA SCT020 RMK BLU TEMPO WHT 8.1mph 8°C 4°C 7.0°C
08/01/23 14:20 EGVN 081420Z 21008KT 9999 SCT025 BKN200 08/05 Q0987 TEMPO 7000 SHRA SCT020 RMK BLU TEMPO WHT 9.2mph 8°C 5°C 7.3°C
08/01/23 13:50 EGVN 081350Z 20010KT 9999 FEW025 BKN120 08/05 Q0987 NOSIG RMK BLU BLU 11.5mph 8°C 5°C 7.3°C
08/01/23 13:20 EGVN 081320Z 20010KT 9999 FEW022 BKN180 08/05 Q0987 NOSIG RMK BLU BLU 11.5mph 8°C 5°C 7.3°C
08/01/23 12:50 EGVN 081250Z 19011KT 9999 SCT022 BKN180 08/05 Q0988 BECMG FEW022 RMK WHT BECMG WHT 12.7mph 8°C 5°C 7.3°C
08/01/23 12:20 EGVN 081220Z 20012KT 9999 -SHRA SCT022 BKN040 08/05 Q0989 TEMPO FEW022 RMK WHT TEMPO BLU -SHRA 13.8mph 8°C 5°C 7.3°C
08/01/23 11:50 EGVN 081150Z 20013G25KT 9999 SCT022 BKN040 09/05 Q0989 TEMPO 6000 SHRA RMK WHT TEMPO WHT 15.0mph 28.8mph 9°C 5°C 8.3°C
08/01/23 11:20 EGVN 081120Z 19014G24KT 9999 FEW020 SCT050 09/06 Q0989 TEMPO 6000 SHRA SCT020 RMK BLU TEMPO WHT 16.1mph 27.6mph 9°C 6°C 8.6°C
08/01/23 10:50 EGVN 081050Z 18013KT 9999 FEW020 SCT040 08/05 Q0990 TEMPO 6000 SHRA SCT020 15.0mph 8°C 5°C 7.3°C
08/01/23 10:20 EGVN 081020Z 19012G23KT 9999 FEW023 SCT060 BKN180 08/05 Q0990 TEMPO 6000 SHRA SCT022 RMK BLU TEMPO WHT 13.8mph 26.5mph 8°C 5°C 7.3°C
08/01/23 09:50 EGVN 080950Z 18009KT 9999 FEW023 SCT100 BKN190 08/05 Q0990 TEMPO 6000 SHRA SCT022 RMK BLU TEMPO WHT 10.4mph 8°C 5°C 7.3°C
08/01/23 09:50 EGVN 080950Z 18009KT 9999 FEW023 SCT100 BKN190 08/05 Q0990 TEMPO 6000 SHRA SCT022 10.4mph 8°C 5°C 7.3°C
08/01/23 08:50 EGVN 080850Z 17007KT 9999 FEW025 SCT042 06/04 Q0991 NOSIG RMK BLU BLU 8.1mph 6°C 4°C 5.0°C
08/01/23 08:50 EGVN 080850Z 17007KT 9999 FEW025 SCT042 06/04 Q0991 NOSIG 8.1mph 6°C 4°C 5.0°C
08/01/23 07:50 EGVN 080750Z 18006KT 9999 FEW020 06/04 Q0992 NOSIG RMK BLU BLU 6.9mph 6°C 4°C 5.0°C
08/01/23 07:20 EGVN 080720Z AUTO 20007KT 9999 FEW035/// 06/04 Q0992 8.1mph 6°C 4°C 5.0°C
08/01/23 06:50 EGVN 080650Z 20008KT 9999 FEW040 FEW055 06/04 Q0993 NOSIG RMK BLU BLU 9.2mph 6°C 4°C 5.0°C
08/01/23 06:20 EGVN 080620Z 19009KT 9999 SCT027 BKN050 07/04 Q0993 TEMPO SCT022 RMK BLU TEMPO WHT 10.4mph 7°C 4°C 6.0°C
08/01/23 05:50 EGVN 080550Z 20008KT 9999 BKN027 07/04 Q0993 TEMPO SCT022 9.2mph 7°C 4°C 6.0°C
08/01/23 05:20 EGVN 080520Z 20008KT 9999 SCT028 BKN040 07/04 Q0993 NOSIG RMK BLU BLU 9.2mph 7°C 4°C 6.0°C
08/01/23 04:50 EGVN 080450Z 20007KT 9999 FEW030 BKN060 07/04 Q0993 NOSIG RMK BLU BLU 8.1mph 7°C 4°C 6.0°C
08/01/23 04:20 EGVN 080420Z 20007KT CAVOK 07/04 Q0993 NOSIG RMK BLU BLU 8.1mph 7°C 4°C 6.0°C
08/01/23 03:50 EGVN 080350Z 20009KT CAVOK 07/04 Q0994 NOSIG RMK BLU BLU 10.4mph 7°C 4°C 6.0°C
08/01/23 03:20 EGVN 080320Z AUTO 19009KT 9999 FEW027/// 07/04 Q0994 10.4mph 7°C 4°C 6.0°C
08/01/23 02:50 EGVN 080250Z 20007KT 9999 BKN030 08/05 Q0994 NOSIG RMK BLU BLU 8.1mph 8°C 5°C 7.3°C
08/01/23 02:20 EGVN 080220Z AUTO 20007KT 9999 FEW028/// OVC200/// 08/05 Q0994 8.1mph 8°C 5°C 7.3°C
08/01/23 01:50 EGVN 080150Z 20009KT CAVOK 08/05 Q0994 TEMPO 6000 SHRA SCT022 RMK BLU TEMPO WHT 10.4mph 8°C 5°C 7.3°C
08/01/23 01:20 EGVN 080120Z 20008KT 9999 BKN035 08/05 Q0994 TEMPO 6000 SHRA SCT022 RMK BLU TEMPO WHT 9.2mph 8°C 5°C 7.3°C
08/01/23 00:20 EGVN 080020Z 20008KT 9999 FEW035 08/05 Q0994 TEMPO 6000 SHRA SCT020 RMK BLU TEMPO WHT 9.2mph 8°C 5°C 7.3°C
07/01/23 23:50 EGVN 072350Z 20011KT 9999 FEW040 08/05 Q0994 TEMPO 6000 SHRA SCT020 RMK BLU TEMPO WHT 12.7mph 8°C 5°C 7.3°C
07/01/23 23:20 EGVN 072320Z 20011KT 9999 FEW038 08/05 Q0995 TEMPO 6000 SHRA SCT022 RMK BLU TEMPO WHT 12.7mph 8°C 5°C 7.3°C
07/01/23 22:50 EGVN 072250Z 19011KT 9999 FEW035 08/05 Q0995 TEMPO 6000 SHRA BKN022 RMK BLU TEMPO WHT 12.7mph 8°C 5°C 7.3°C
07/01/23 22:20 EGVN 072220Z 20010KT 9999 FEW040 08/05 Q0995 NOSIG RMK BLU BLU 11.5mph 8°C 5°C 7.3°C
07/01/23 21:50 EGVN 072150Z 20009KT 9999 FEW040 07/05 Q0995 NOSIG RMK BLU BLU 10.4mph 7°C 5°C 6.3°C
07/01/23 21:20 EGVN 072120Z 20010KT 9999 FEW040 07/04 Q0995 NOSIG RMK BLU BLU 11.5mph 7°C 4°C 6.0°C
07/01/23 20:50 EGVN 072050Z 21009KT 9999 FEW040 07/04 Q0995 NOSIG RMK BLU BLU 10.4mph 7°C 4°C 6.0°C
07/01/23 20:20 EGVN 072020Z 21009KT 9999 FEW040 07/04 Q0995 NOSIG RMK BLU BLU 10.4mph 7°C 4°C 6.0°C
07/01/23 19:50 EGVN 071950Z 21010KT 9999 FEW040 07/04 Q0994 NOSIG RMK BLU BLU 11.5mph 7°C 4°C 6.0°C
07/01/23 19:20 EGVN 071920Z AUTO 21009G20KT 9999 NCD 07/04 Q0994 10.4mph 23.0mph 7°C 4°C 6.0°C
07/01/23 18:50 EGVN 071850Z 21009KT 9999 FEW030 07/04 Q0994 NOSIG RMK BLU BLU 10.4mph 7°C 4°C 6.0°C
07/01/23 18:20 EGVN 071820Z 21010KT 9999 FEW028 07/05 Q0994 NOSIG RMK BLU BLU 11.5mph 7°C 5°C 6.3°C
07/01/23 17:50 EGVN 071750Z 21010KT 9999 SCT032 08/05 Q0994 NOSIG RMK BLU BLU 11.5mph 8°C 5°C 7.3°C
07/01/23 17:20 EGVN 071720Z 22009KT 9999 FEW018 SCT040 BKN140 08/06 Q0993 NOSIG RMK BLU BLU 10.4mph 8°C 6°C 7.6°C
07/01/23 16:50 EGVN 071650Z 21012G23KT 9999 -SHRA FEW020 BKN035 08/06 Q0993 RESHRA NOSIG RMK BLU BLU -SHRA 13.8mph 26.5mph 8°C 6°C 7.6°C
07/01/23 16:20 EGVN 071620Z 20011KT 8000 SHRA SCT020 BKN035 08/06 Q0993 TEMPO 4000 RMK WHT TEMPO GRN SHRA 12.7mph 8°C 6°C 7.6°C
07/01/23 16:08 EGVN 071608Z 22011KT 9999 -SHRA SCT015CB BKN030 08/06 Q0993 RESHRA TEMPO 3000 +SHRA RMK WHT TEMPO YLO1 -SHRA 12.7mph 8°C 6°C 7.6°C
07/01/23 15:20 EGVN 071520Z 20010KT 9999 FEW020CB SCT060 10/07 Q0993 TEMPO 21015G25KT 3000 +SHRA SCT014CB RMK BLU TEMPO YLO1 11.5mph 10°C 7°C 10.0°C
07/01/23 14:50 EGVN 071450Z 20012KT 9999 FEW020 SCT060 11/07 Q0993 TEMPO 6000 SHRA SCT020 RMK BLU TEMPO WHT 13.8mph 11°C 7°C 11.0°C
07/01/23 14:20 EGVN 071420Z 21011KT 9999 FEW016 SCT028 11/07 Q0993 TEMPO 6000 SHRA SCT016 RMK BLU TEMPO WHT 12.7mph 11°C 7°C 11.0°C
07/01/23 13:50 EGVN 071350Z 20011KT 9999 FEW015 12/09 Q0994 TEMPO 6000 SHRA SCT015 RMK BLU TEMPO WHT 12.7mph 12°C 9°C 12.8°C
07/01/23 12:50 EGVN 071250Z 20012G25KT 9999 -RADZ FEW007 SCT012 BKN030 11/09 Q0994 BECMG SCT030 RMK GRN BECMG BLU -RA -DZ 13.8mph 28.8mph 11°C 9°C 11.8°C
07/01/23 12:20 EGVN 071220Z 20010KT 4000 RADZ FEW006 BKN010 11/10 Q0995 BECMG 9999 NSW SCT030 RMK GRN BECMG BLU RA DZ 11.5mph 11°C 10°C 12.3°C
07/01/23 12:07 EGVN 071207Z 20011KT 4500 RADZ FEW009 BKN012 11/10 Q0995 BECMG 9999 NSW SCT030 RMK GRN BECMG BLU RA DZ 12.7mph 11°C 10°C 12.3°C
07/01/23 11:20 EGVN 071120Z 19016G26KT 9999 SCT014 BKN024 12/09 Q0995 TEMPO 4000 RADZ RMK GRN TEMPO GRN 18.4mph 29.9mph 12°C 9°C 12.8°C
07/01/23 10:50 EGVN 071050Z 19013G23KT 9999 SCT014 BKN023 11/10 Q0996 TEMPO 4000 RADZ 15.0mph 26.5mph 11°C 10°C 12.3°C
07/01/23 10:20 EGVN 071020Z 19014G24KT 9999 -DZ BKN013 BKN020 11/10 Q0996 TEMPO 4000 RADZ RMK GRN TEMPO GRN -DZ 16.1mph 27.6mph 11°C 10°C 12.3°C
07/01/23 09:50 EGVN 070950Z 19012G22KT 9999 -DZ BKN010 11/10 Q0996 RERA REDZ TEMPO 4000 RADZ RMK GRN TEMPO GRN -DZ 13.8mph 25.3mph 11°C 10°C 12.3°C
07/01/23 09:20 EGVN 070920Z 19014KT 4000 RADZ BKN010 BKN018 11/09 Q0996 TEMPO 7000 -RADZ BKN015 RMK GRN TEMPO WHT RA DZ 16.1mph 11°C 9°C 11.8°C
07/01/23 08:50 EGVN 070850Z 19015KT 9999 -RADZ BKN014 BKN020 11/09 Q0997 TEMPO 6000 BKN015 RMK GRN TEMPO WHT -RA -DZ 17.3mph 11°C 9°C 11.8°C
07/01/23 08:20 EGVN 070820Z 18016G28KT 9999 -RADZ BKN014 BKN024 11/09 Q0997 TEMPO 6000 BKN015 RMK GRN TEMPO WHT -RA -DZ 18.4mph 32.2mph 11°C 9°C 11.8°C
07/01/23 07:50 EGVN 070750Z 18017G30KT 9999 -RADZ BKN013 OVC020 11/09 Q0997 TEMPO 6000 RMK GRN TEMPO GRN -RA -DZ 19.6mph 34.5mph 11°C 9°C 11.8°C
07/01/23 06:50 EGVN 070650Z 18018G31KT 9999 -RA BKN013 OVC022 11/09 Q0998 TEMPO 6000 -RA 20.7mph 35.7mph 11°C 9°C 11.8°C